SWR253 LEIB-LSGG
Flight info
| Callsign | SWR253 |
|---|---|
| Flight time | N/A |
| Altitude | 36000 |
| Route | LEIB/24 N0442F360 KABR4E KABRE DCT ELTAN DCT MHN DCT MEROS DCT LAPIT DCT CHELY DCT LUMAS DCT NEVIX DCT ODIXU DCT MAXIR DCT LUSOL DCT BODRU/N0433F280 DCT OKTET DCT IRMAR DCT KINES KINE2R LSGG/22 |
| Aircraft | A320/M-V/N |
Departure
| Time | N/A |
|---|---|
| Airport | Ibiza Airport (LEIB) |
Arrival
| Time | 2026-05-05 17:27 |
|---|---|
| Airport | Geneva International Airport (LSGG) |
| Time | Latitude | Longitude | Altitude | Speed | Heading |
|---|---|---|---|---|---|
| 2026-05-05 16:15 | 38.83452 | 2.24200 | 25275 ft | 490 kts | 60° |
| 2026-05-05 16:15 | 38.86796 | 2.31861 | 26014 ft | 494 kts | 60° |
| 2026-05-05 16:16 | 38.90176 | 2.39613 | 26680 ft | 501 kts | 61° |
| 2026-05-05 16:16 | 38.93597 | 2.47479 | 27379 ft | 506 kts | 61° |
| 2026-05-05 16:17 | 38.97041 | 2.55409 | 28048 ft | 511 kts | 61° |
| 2026-05-05 16:17 | 38.98773 | 2.59411 | 28370 ft | 513 kts | 61° |
| 2026-05-05 16:18 | 39.02247 | 2.67460 | 28965 ft | 517 kts | 62° |
| 2026-05-05 16:18 | 39.03988 | 2.71507 | 29322 ft | 518 kts | 62° |
| 2026-05-05 16:18 | 39.07485 | 2.79645 | 29951 ft | 521 kts | 62° |
| 2026-05-05 16:19 | 39.09241 | 2.83728 | 30295 ft | 521 kts | 62° |
| 2026-05-05 16:19 | 39.11020 | 2.87793 | 30619 ft | 521 kts | 58° |
| 2026-05-05 16:19 | 39.15988 | 2.94472 | 31243 ft | 518 kts | 37° |
| 2026-05-05 16:20 | 39.21595 | 3.00295 | 31909 ft | 517 kts | 37° |
| 2026-05-05 16:20 | 39.27209 | 3.06081 | 32579 ft | 516 kts | 37° |
| 2026-05-05 16:21 | 39.32765 | 3.11832 | 33304 ft | 515 kts | 37° |
| 2026-05-05 16:22 | 39.41139 | 3.20565 | 34234 ft | 515 kts | 37° |
| 2026-05-05 16:22 | 39.46700 | 3.26379 | 34837 ft | 513 kts | 37° |
| 2026-05-05 16:23 | 39.52281 | 3.32226 | 35412 ft | 512 kts | 37° |
| 2026-05-05 16:23 | 39.55051 | 3.35131 | 35700 ft | 511 kts | 37° |
| 2026-05-05 16:23 | 39.60583 | 3.40941 | 35903 ft | 512 kts | 37° |
| 2026-05-05 16:24 | 39.66076 | 3.46728 | 35898 ft | 512 kts | 37° |
| 2026-05-05 16:25 | 39.74399 | 3.55520 | 35901 ft | 511 kts | 37° |
| 2026-05-05 16:25 | 39.82705 | 3.64330 | 35899 ft | 515 kts | 37° |
| 2026-05-05 16:26 | 39.93807 | 3.76101 | 35904 ft | 516 kts | 37° |
| 2026-05-05 16:27 | 39.99349 | 3.82028 | 35913 ft | 516 kts | 37° |
| 2026-05-05 16:27 | 40.04912 | 3.87982 | 35904 ft | 516 kts | 37° |
| 2026-05-05 16:28 | 40.10471 | 3.93928 | 35898 ft | 516 kts | 37° |
| 2026-05-05 16:28 | 40.16037 | 3.99896 | 35891 ft | 516 kts | 37° |
| 2026-05-05 16:29 | 40.21587 | 4.05872 | 35898 ft | 517 kts | 37° |
| 2026-05-05 16:29 | 40.27139 | 4.11862 | 35888 ft | 518 kts | 37° |
| 2026-05-05 16:30 | 40.32705 | 4.17884 | 35888 ft | 518 kts | 37° |
| 2026-05-05 16:30 | 40.38265 | 4.23894 | 35878 ft | 518 kts | 37° |
| 2026-05-05 16:31 | 40.43827 | 4.29930 | 35903 ft | 519 kts | 37° |
| 2026-05-05 16:31 | 40.49752 | 4.35208 | 35888 ft | 511 kts | 21° |
| 2026-05-05 16:32 | 40.56348 | 4.38171 | 35881 ft | 497 kts | 4° |
| 2026-05-05 16:32 | 40.63158 | 4.39781 | 35879 ft | 497 kts | 3° |
| 2026-05-05 16:33 | 40.69966 | 4.41418 | 35882 ft | 498 kts | 3° |
| 2026-05-05 16:33 | 40.76795 | 4.43059 | 35890 ft | 499 kts | 3° |
| 2026-05-05 16:34 | 40.83678 | 4.44725 | 35917 ft | 499 kts | 4° |
| 2026-05-05 16:34 | 40.90510 | 4.46378 | 35910 ft | 500 kts | 3° |
| 2026-05-05 16:35 | 40.97307 | 4.48013 | 35906 ft | 500 kts | 3° |
| 2026-05-05 16:35 | 41.04157 | 4.49679 | 35904 ft | 500 kts | 4° |
| 2026-05-05 16:36 | 41.11005 | 4.51357 | 35922 ft | 500 kts | 4° |
| 2026-05-05 16:36 | 41.17861 | 4.53023 | 35908 ft | 500 kts | 4° |
| 2026-05-05 16:37 | 41.24712 | 4.54688 | 35900 ft | 500 kts | 4° |
| 2026-05-05 16:37 | 41.31552 | 4.56352 | 35904 ft | 500 kts | 4° |
| 2026-05-05 16:38 | 41.38405 | 4.58036 | 35868 ft | 501 kts | 4° |
| 2026-05-05 16:38 | 41.45246 | 4.59727 | 35875 ft | 501 kts | 4° |
| 2026-05-05 16:39 | 41.52113 | 4.61414 | 35899 ft | 501 kts | 4° |
| 2026-05-05 16:39 | 41.58973 | 4.63105 | 35891 ft | 501 kts | 4° |
| 2026-05-05 16:40 | 41.65837 | 4.64808 | 35889 ft | 502 kts | 4° |
| 2026-05-05 16:40 | 41.72690 | 4.66639 | 35910 ft | 507 kts | 10° |
| 2026-05-05 16:41 | 41.79324 | 4.70104 | 35901 ft | 513 kts | 18° |
| 2026-05-05 16:41 | 41.85865 | 4.73865 | 35894 ft | 514 kts | 18° |
| 2026-05-05 16:42 | 41.92427 | 4.77645 | 35908 ft | 514 kts | 18° |
| 2026-05-05 16:42 | 41.99015 | 4.81446 | 35900 ft | 514 kts | 18° |
| 2026-05-05 16:43 | 42.05592 | 4.85257 | 35897 ft | 515 kts | 18° |
| 2026-05-05 16:43 | 42.12167 | 4.89083 | 35923 ft | 515 kts | 18° |
| 2026-05-05 16:44 | 42.18762 | 4.92921 | 35903 ft | 515 kts | 18° |
| 2026-05-05 16:44 | 42.25348 | 4.96755 | 35868 ft | 516 kts | 18° |
| 2026-05-05 16:45 | 42.31936 | 5.00601 | 35901 ft | 516 kts | 19° |
| 2026-05-05 16:45 | 42.38523 | 5.04455 | 35901 ft | 516 kts | 19° |
| 2026-05-05 16:46 | 42.44962 | 5.08817 | 35901 ft | 520 kts | 25° |
| 2026-05-05 16:46 | 42.51284 | 5.13596 | 35929 ft | 520 kts | 25° |
| 2026-05-05 16:47 | 42.57623 | 5.18362 | 35912 ft | 520 kts | 25° |
| 2026-05-05 16:47 | 42.63955 | 5.23132 | 35910 ft | 520 kts | 25° |
| 2026-05-05 16:48 | 42.70283 | 5.27921 | 35910 ft | 521 kts | 25° |
| 2026-05-05 16:48 | 42.76607 | 5.32731 | 35910 ft | 521 kts | 26° |
| 2026-05-05 16:49 | 42.82927 | 5.37549 | 35900 ft | 520 kts | 25° |
| 2026-05-05 16:49 | 42.89210 | 5.42348 | 35921 ft | 520 kts | 26° |
| 2026-05-05 16:50 | 42.95521 | 5.47175 | 35929 ft | 520 kts | 26° |
| 2026-05-05 16:50 | 43.01869 | 5.52037 | 35925 ft | 520 kts | 26° |
| 2026-05-05 16:51 | 43.08076 | 5.56993 | 35927 ft | 522 kts | 32° |
| 2026-05-05 16:51 | 43.13498 | 5.63730 | 35941 ft | 525 kts | 48° |
| 2026-05-05 16:52 | 43.17538 | 5.69948 | 35928 ft | 525 kts | 48° |
| 2026-05-05 16:52 | 43.22380 | 5.77422 | 35907 ft | 525 kts | 48° |
| 2026-05-05 16:53 | 43.27241 | 5.84926 | 35927 ft | 526 kts | 48° |
| 2026-05-05 16:53 | 43.32095 | 5.92454 | 35933 ft | 525 kts | 48° |
| 2026-05-05 16:54 | 43.37414 | 5.99233 | 35935 ft | 521 kts | 31° |
| 2026-05-05 16:54 | 43.43844 | 6.03557 | 35920 ft | 509 kts | 12° |
| 2026-05-05 16:55 | 43.50703 | 6.05173 | 35930 ft | 496 kts | 358° |
| 2026-05-05 16:55 | 43.57590 | 6.05879 | 35922 ft | 496 kts | 358° |
| 2026-05-05 16:56 | 43.64439 | 6.06568 | 35919 ft | 496 kts | 358° |
| 2026-05-05 16:56 | 43.71327 | 6.07262 | 35828 ft | 491 kts | 358° |
| 2026-05-05 16:57 | 43.74723 | 6.07763 | 35675 ft | 492 kts | 4° |
| 2026-05-05 16:57 | 43.78077 | 6.08881 | 35504 ft | 499 kts | 13° |
| 2026-05-05 16:57 | 43.81329 | 6.10662 | 35363 ft | 507 kts | 22° |
| 2026-05-05 16:57 | 43.84500 | 6.12825 | 35204 ft | 509 kts | 22° |
| 2026-05-05 16:58 | 43.87691 | 6.15007 | 34867 ft | 511 kts | 22° |
| 2026-05-05 16:58 | 43.90884 | 6.17191 | 34531 ft | 513 kts | 22° |
| 2026-05-05 16:58 | 43.94083 | 6.19381 | 34190 ft | 516 kts | 22° |
| 2026-05-05 16:58 | 43.97318 | 6.21596 | 33790 ft | 519 kts | 22° |
| 2026-05-05 16:59 | 44.00562 | 6.23818 | 33352 ft | 520 kts | 22° |
| 2026-05-05 16:59 | 44.03795 | 6.26033 | 32940 ft | 520 kts | 22° |
| 2026-05-05 16:59 | 44.07030 | 6.28248 | 32541 ft | 518 kts | 22° |
| 2026-05-05 16:59 | 44.10259 | 6.30461 | 32102 ft | 516 kts | 22° |
| 2026-05-05 17:00 | 44.13480 | 6.32677 | 31707 ft | 516 kts | 22° |
| 2026-05-05 17:00 | 44.16702 | 6.34898 | 31296 ft | 515 kts | 22° |
| 2026-05-05 17:00 | 44.19915 | 6.37115 | 30908 ft | 514 kts | 22° |
| 2026-05-05 17:00 | 44.23128 | 6.39334 | 30518 ft | 514 kts | 22° |
| 2026-05-05 17:01 | 44.26316 | 6.41538 | 30151 ft | 512 kts | 22° |
| 2026-05-05 17:01 | 44.29505 | 6.43746 | 29723 ft | 510 kts | 23° |
| 2026-05-05 17:01 | 44.32666 | 6.45941 | 29267 ft | 509 kts | 23° |
| 2026-05-05 17:01 | 44.35806 | 6.48121 | 28778 ft | 510 kts | 23° |
| 2026-05-05 17:02 | 44.38988 | 6.50327 | 28340 ft | 509 kts | 23° |
| 2026-05-05 17:02 | 44.42149 | 6.52520 | 27907 ft | 506 kts | 23° |
| 2026-05-05 17:02 | 44.45278 | 6.54695 | 27508 ft | 499 kts | 24° |
| 2026-05-05 17:02 | 44.48379 | 6.56854 | 27135 ft | 495 kts | 24° |
| 2026-05-05 17:03 | 44.51443 | 6.58992 | 26768 ft | 491 kts | 24° |
| 2026-05-05 17:03 | 44.54490 | 6.61123 | 26411 ft | 486 kts | 24° |
| 2026-05-05 17:03 | 44.57502 | 6.63235 | 26053 ft | 483 kts | 24° |
| 2026-05-05 17:03 | 44.60506 | 6.65343 | 25699 ft | 480 kts | 24° |
| 2026-05-05 17:04 | 44.63490 | 6.67437 | 25355 ft | 477 kts | 24° |
| 2026-05-05 17:04 | 44.66447 | 6.69510 | 25014 ft | 474 kts | 24° |
| 2026-05-05 17:04 | 44.69387 | 6.71569 | 24641 ft | 470 kts | 24° |
| 2026-05-05 17:04 | 44.72303 | 6.73612 | 24258 ft | 467 kts | 24° |
| 2026-05-05 17:05 | 44.75195 | 6.75644 | 23884 ft | 463 kts | 24° |
| 2026-05-05 17:05 | 44.78140 | 6.77386 | 23515 ft | 456 kts | 15° |
| 2026-05-05 17:05 | 44.81197 | 6.78418 | 23086 ft | 449 kts | 4° |
| 2026-05-05 17:05 | 44.84280 | 6.78744 | 22650 ft | 440 kts | 355° |
| 2026-05-05 17:06 | 44.87320 | 6.78558 | 22210 ft | 436 kts | 352° |
| 2026-05-05 17:06 | 44.90345 | 6.78351 | 21784 ft | 434 kts | 353° |
| 2026-05-05 17:06 | 44.93340 | 6.78158 | 21367 ft | 431 kts | 353° |
| 2026-05-05 17:06 | 44.96335 | 6.77971 | 20940 ft | 428 kts | 352° |
| 2026-05-05 17:07 | 44.99307 | 6.77783 | 20590 ft | 426 kts | 353° |
| 2026-05-05 17:07 | 45.02225 | 6.77593 | 20251 ft | 423 kts | 353° |
| 2026-05-05 17:07 | 45.05152 | 6.77401 | 19976 ft | 420 kts | 353° |
| 2026-05-05 17:07 | 45.08079 | 6.77205 | 19920 ft | 420 kts | 353° |
| 2026-05-05 17:08 | 45.10998 | 6.77006 | 19937 ft | 421 kts | 353° |
| 2026-05-05 17:08 | 45.13927 | 6.76803 | 19911 ft | 421 kts | 353° |
| 2026-05-05 17:08 | 45.16855 | 6.76608 | 19908 ft | 421 kts | 353° |
| 2026-05-05 17:08 | 45.19780 | 6.76416 | 19916 ft | 421 kts | 353° |
| 2026-05-05 17:09 | 45.22705 | 6.76223 | 19915 ft | 421 kts | 353° |
| 2026-05-05 17:09 | 45.25623 | 6.76028 | 19916 ft | 421 kts | 353° |
| 2026-05-05 17:09 | 45.28552 | 6.75831 | 19914 ft | 420 kts | 353° |
| 2026-05-05 17:09 | 45.31464 | 6.75637 | 19916 ft | 420 kts | 353° |
| 2026-05-05 17:10 | 45.34363 | 6.75207 | 19910 ft | 416 kts | 345° |
| 2026-05-05 17:10 | 45.37214 | 6.74432 | 19918 ft | 416 kts | 344° |
| 2026-05-05 17:10 | 45.40047 | 6.73660 | 19918 ft | 415 kts | 345° |
| 2026-05-05 17:10 | 45.42852 | 6.72896 | 19918 ft | 415 kts | 345° |
| 2026-05-05 17:11 | 45.45687 | 6.72125 | 19917 ft | 415 kts | 345° |
| 2026-05-05 17:11 | 45.48521 | 6.71355 | 19910 ft | 415 kts | 345° |
| 2026-05-05 17:11 | 45.51361 | 6.70580 | 19829 ft | 415 kts | 345° |
| 2026-05-05 17:11 | 45.54196 | 6.69810 | 19596 ft | 414 kts | 344° |
| 2026-05-05 17:12 | 45.57025 | 6.69063 | 19331 ft | 412 kts | 345° |
| 2026-05-05 17:12 | 45.59842 | 6.68336 | 19097 ft | 410 kts | 346° |
| 2026-05-05 17:12 | 45.62641 | 6.67622 | 18850 ft | 409 kts | 346° |
| 2026-05-05 17:12 | 45.65439 | 6.66910 | 18612 ft | 407 kts | 346° |
| 2026-05-05 17:13 | 45.68220 | 6.66198 | 18393 ft | 405 kts | 346° |
| 2026-05-05 17:13 | 45.70988 | 6.65484 | 18144 ft | 405 kts | 346° |
| 2026-05-05 17:13 | 45.73757 | 6.64766 | 17919 ft | 404 kts | 346° |
| 2026-05-05 17:13 | 45.76515 | 6.64046 | 17906 ft | 402 kts | 346° |
| 2026-05-05 17:14 | 45.79274 | 6.63307 | 17917 ft | 402 kts | 346° |
| 2026-05-05 17:14 | 45.82030 | 6.62558 | 17856 ft | 403 kts | 345° |
| 2026-05-05 17:14 | 45.84781 | 6.61807 | 17515 ft | 400 kts | 346° |
| 2026-05-05 17:14 | 45.87510 | 6.61061 | 17131 ft | 399 kts | 346° |
| 2026-05-05 17:15 | 45.90231 | 6.60321 | 16772 ft | 397 kts | 346° |
| 2026-05-05 17:15 | 45.92939 | 6.59588 | 16400 ft | 395 kts | 346° |
| 2026-05-05 17:15 | 45.95634 | 6.58856 | 16030 ft | 393 kts | 346° |
| 2026-05-05 17:15 | 45.98314 | 6.58125 | 15671 ft | 391 kts | 346° |
| 2026-05-05 17:16 | 46.00939 | 6.57264 | 15297 ft | 385 kts | 339° |
| 2026-05-05 17:16 | 46.03383 | 6.55790 | 14926 ft | 378 kts | 328° |
| 2026-05-05 17:16 | 46.05558 | 6.53730 | 14557 ft | 371 kts | 317° |
| 2026-05-05 17:16 | 46.07410 | 6.51193 | 14189 ft | 364 kts | 307° |
| 2026-05-05 17:17 | 46.08913 | 6.48293 | 13920 ft | 359 kts | 300° |
| 2026-05-05 17:17 | 46.10316 | 6.45309 | 13898 ft | 359 kts | 300° |
| 2026-05-05 17:17 | 46.11816 | 6.42472 | 13900 ft | 365 kts | 311° |
| 2026-05-05 17:17 | 46.13866 | 6.40272 | 13636 ft | 374 kts | 329° |
| 2026-05-05 17:18 | 46.16363 | 6.39208 | 13044 ft | 379 kts | 352° |
| 2026-05-05 17:18 | 46.19005 | 6.39295 | 12423 ft | 381 kts | 2° |
| 2026-05-05 17:18 | 46.21646 | 6.39542 | 11796 ft | 380 kts | 1° |
| 2026-05-05 17:18 | 46.24277 | 6.39776 | 11246 ft | 377 kts | 1° |
| 2026-05-05 17:19 | 46.26876 | 6.40125 | 10948 ft | 373 kts | 9° |
| 2026-05-05 17:19 | 46.29309 | 6.41198 | 10882 ft | 358 kts | 23° |
| 2026-05-05 17:19 | 46.31418 | 6.42929 | 10895 ft | 341 kts | 36° |
| 2026-05-05 17:19 | 46.33149 | 6.45143 | 10901 ft | 325 kts | 47° |
| 2026-05-05 17:20 | 46.34710 | 6.47463 | 10652 ft | 322 kts | 47° |
| 2026-05-05 17:20 | 46.36370 | 6.49670 | 10194 ft | 324 kts | 36° |
| 2026-05-05 17:20 | 46.38316 | 6.51205 | 9974 ft | 315 kts | 15° |
| 2026-05-05 17:20 | 46.40449 | 6.51513 | 9651 ft | 306 kts | 348° |
| 2026-05-05 17:21 | 46.42407 | 6.50529 | 9272 ft | 293 kts | 322° |
| 2026-05-05 17:21 | 46.43807 | 6.48513 | 8828 ft | 281 kts | 297° |
| 2026-05-05 17:21 | 46.44464 | 6.45836 | 8007 ft | 284 kts | 273° |
| 2026-05-05 17:22 | 46.43589 | 6.40349 | 6626 ft | 276 kts | 234° |
| 2026-05-05 17:22 | 46.42378 | 6.38321 | 6263 ft | 258 kts | 225° |
| 2026-05-05 17:22 | 46.41155 | 6.36511 | 5915 ft | 243 kts | 225° |
| 2026-05-05 17:22 | 46.40009 | 6.34807 | 5589 ft | 231 kts | 226° |
| 2026-05-05 17:23 | 46.38913 | 6.33182 | 5272 ft | 219 kts | 225° |
| 2026-05-05 17:23 | 46.37882 | 6.31655 | 4991 ft | 209 kts | 225° |
| 2026-05-05 17:23 | 46.36873 | 6.30161 | 4714 ft | 200 kts | 225° |
| 2026-05-05 17:23 | 46.35905 | 6.28731 | 4447 ft | 198 kts | 226° |
| 2026-05-05 17:24 | 46.34942 | 6.27306 | 4184 ft | 196 kts | 225° |
| 2026-05-05 17:24 | 46.34015 | 6.25936 | 3918 ft | 189 kts | 226° |
| 2026-05-05 17:24 | 46.33108 | 6.24597 | 3666 ft | 179 kts | 226° |
| 2026-05-05 17:24 | 46.32247 | 6.23326 | 3446 ft | 177 kts | 225° |
| 2026-05-05 17:25 | 46.31408 | 6.22088 | 3233 ft | 170 kts | 225° |
| 2026-05-05 17:25 | 46.30856 | 6.21273 | 3058 ft | 168 kts | 225° |
| 2026-05-05 17:25 | 46.29787 | 6.19698 | 2764 ft | 161 kts | 225° |
| 2026-05-05 17:25 | 46.29022 | 6.18570 | 2531 ft | 149 kts | 224° |
| 2026-05-05 17:26 | 46.28299 | 6.17507 | 2371 ft | 148 kts | 225° |
| 2026-05-05 17:26 | 46.27584 | 6.16453 | 2056 ft | 147 kts | 226° |
| 2026-05-05 17:26 | 46.26887 | 6.15391 | 1887 ft | 145 kts | 225° |
| 2026-05-05 17:26 | 46.26180 | 6.14349 | 1713 ft | 146 kts | 223° |
| 2026-05-05 17:27 | 46.25456 | 6.13307 | 1529 ft | 149 kts | 223° |
| 2026-05-05 17:27 | 46.24740 | 6.12253 | 1371 ft | 140 kts | 223° |
| 2026-05-05 17:27 | 46.24195 | 6.11465 | 1374 ft | 71 kts | 226° |
| 2026-05-05 17:27 | 46.24000 | 6.11177 | 1378 ft | 30 kts | 225° |
| 2026-05-05 17:28 | 46.23857 | 6.10970 | 1379 ft | 28 kts | 226° |
| 2026-05-05 17:28 | 46.23722 | 6.10776 | 1377 ft | 21 kts | 221° |
| 2026-05-05 17:28 | 46.23608 | 6.10739 | 1378 ft | 17 kts | 199° |
| 2026-05-05 17:28 | 46.23543 | 6.10706 | 1379 ft | 3 kts | 197° |
| 2026-05-05 17:29 | 46.23507 | 6.10692 | 1378 ft | 4 kts | 193° |
| 2026-05-05 17:29 | 46.23478 | 6.10682 | 1382 ft | 4 kts | 192° |
| 2026-05-05 17:29 | 46.23466 | 6.10678 | 1382 ft | 1 kts | 192° |
| 2026-05-05 17:29 | 46.23422 | 6.10697 | 1380 ft | 10 kts | 142° |
| 2026-05-05 17:30 | 46.23367 | 6.10774 | 1380 ft | 11 kts | 135° |
| 2026-05-05 17:30 | 46.23299 | 6.10789 | 1380 ft | 10 kts | 198° |
| 2026-05-05 17:30 | 46.23238 | 6.10759 | 1382 ft | 9 kts | 211° |
| 2026-05-05 17:30 | 46.23189 | 6.10688 | 1387 ft | 10 kts | 227° |
| 2026-05-05 17:31 | 46.23138 | 6.10612 | 1385 ft | 10 kts | 224° |
| 2026-05-05 17:31 | 46.23086 | 6.10537 | 1388 ft | 11 kts | 225° |
| 2026-05-05 17:31 | 46.23025 | 6.10447 | 1387 ft | 11 kts | 226° |
| 2026-05-05 17:31 | 46.22994 | 6.10405 | 1389 ft | 3 kts | 209° |
| 2026-05-05 17:32 | 46.22984 | 6.10406 | 1386 ft | 1 kts | 174° |
| 2026-05-05 17:32 | 46.22974 | 6.10413 | 1391 ft | 1 kts | 148° |
| 2026-05-05 17:32 | 46.22968 | 6.10422 | 1403 ft | 1 kts | 138° |
| 2026-05-05 17:32 | 46.22966 | 6.10425 | 1398 ft | 1 kts | 136° |
| 2026-05-05 17:33 | 46.22958 | 6.10436 | 1394 ft | 0 kts | 136° |
| 2026-05-05 17:33 | 46.22952 | 6.10444 | 1394 ft | 1 kts | 135° |
| 2026-05-05 17:33 | 46.22951 | 6.10446 | 1402 ft | 0 kts | 135° |